• Join FlightAware (Why Join?)
  • Login
  • US Flag 
03:39AM EDT


 

Airport Tracker/Info


-or-


 

Live Flight TrackerFlight Track Log ✈ ASH3770 ✈ 14-Apr-2013 ✈ KIAD - KAUS

Flight Track Log - Related Links

Times and Time Zones

All times are in EDT time to prevent confusion due to time zone crossing. See the ASH3770 flight status page for this flight to view local times or setup timezone preferences in your user account.

Time Position Orientation Groundspeed Altitude Reporting Facility
EDT Latitude Longitude Course Direction KTS MPH feet Rate Location/Type
12:52PM 38.9333 -77.5500 270° West 202 232 2,200  Level Potomac TRACON
12:53PM 38.9333 -77.6333 270° West 250 288 4,600 2,520 Climbing Potomac TRACON
12:54PM 38.9167 -77.7167 256° West 241 277 7,000 2,340 Climbing Potomac TRACON
12:55PM 38.9103 -77.7764 262° West 247 284 8,900 1,980 Climbing Washington Center
12:56PM 38.9006 -77.8561 261° West 247 284 10,900 1,800 Climbing Washington Center
12:57PM 38.8836 -77.9758 260° West 270 311 12,500 1,560 Climbing Washington Center
12:58PM 38.8689 -78.0844 260° West 295 339 14,100 1,620 Climbing Washington Center
12:59PM 38.8539 -78.1986 260° West 314 361 15,800 1,740 Climbing Washington Center
01:00PM 38.8514 -78.3133 268° West 323 372 17,600 1,500 Climbing Washington Center
01:01PM 38.8486 -78.4331 268° West 329 379 18,800 1,320 Climbing Washington Center
01:02PM 38.8497 -78.5558 271° West 340 391 20,300 1,380 Climbing Washington Center
01:03PM 38.8467 -78.6808 268° West 345 397 21,600 1,200 Climbing Washington Center
01:04PM 38.8433 -78.8086 268° West 355 409 22,800 1,080 Climbing Washington Center
01:05PM 38.8419 -78.9392 269° West 366 421 23,800 600 Climbing Washington Center
01:06PM 38.8422 -79.0753 270° West 373 429 24,000 60 Climbing Washington Center
01:07PM 38.8339 -79.2161 266° West 387 445 24,000 180 Level Washington Center
01:08PM 38.8086 -79.3586 257° West 405 466 24,400 900 Climbing Washington Center
01:09PM 38.7833 -79.4958 257° West 405 466 25,900 780 Climbing Washington Center
01:10PM 38.7639 -79.6414 260° West 411 473 26,000  Climbing Washington Center
01:11PM 38.7383 -79.7811 257° West 411 473 26,000  Level Washington Center
01:12PM 38.7153 -79.9019 256° West 406 467 26,000  Level Washington Center
01:13PM 38.6869 -80.0442 256° West 406 467 26,000  Level Washington Center
01:14PM 38.6533 -80.2133 256° West 402 463 26,000  Level Indianapolis Center
01:15PM 38.6267 -80.3522 256° West 401 461 26,000  Level Indianapolis Center
01:16PM 38.6019 -80.4894 257° West 397 457 26,000  Level Indianapolis Center
01:17PM 38.5756 -80.6294 256° West 403 464 26,000  Level Indianapolis Center
01:18PM 38.5478 -80.7672 256° West 399 459 26,000  Level Indianapolis Center
01:19PM 38.5119 -80.9003 251° West 393 452 26,000  Level Indianapolis Center
01:20PM 38.4556 -81.0531 245° Southwest 395 455 26,000  Level Indianapolis Center
01:21PM 38.4103 -81.1781 245° Southwest 388 447 26,000  Level Indianapolis Center
01:22PM 38.3625 -81.3047 244° Southwest 392 451 26,000  Level Indianapolis Center
01:23PM 38.3169 -81.4294 245° Southwest 387 445 26,000  Level Indianapolis Center
01:24PM 38.2842 -81.5606 252° West 387 445 26,000  Level Indianapolis Center
01:25PM 38.2511 -81.6906 252° West 384 442 26,000  Level Indianapolis Center
01:27PM 38.2178 -81.8214 252° West 386 444 26,000  Level Indianapolis Center
01:28PM 38.1839 -81.9531 252° West 390 449 26,000  Level Indianapolis Center
01:29PM 38.1433 -82.1133 252° West 394 453 26,000  Level Indianapolis Center
01:30PM 38.1078 -82.2500 252° West 404 465 26,000  Level Indianapolis Center
01:31PM 38.0700 -82.3953 252° West 404 465 26,000  Level Indianapolis Center
01:32PM 38.0353 -82.5297 252° West 403 464 26,000  Level Indianapolis Center
01:33PM 38.0000 -82.6642 252° West 404 465 26,000  Level Indianapolis Center
01:34PM 37.9639 -82.7986 251° West 403 464 26,000  Level Indianapolis Center
01:35PM 37.9286 -82.9353 252° West 408 470 26,000  Level Indianapolis Center
01:36PM 37.8917 -83.0694 251° West 406 467 26,000  Level Indianapolis Center
01:37PM 37.8500 -83.2264 251° West 406 467 26,000  Level Indianapolis Center
01:38PM 37.8142 -83.3606 251° West 404 465 26,000 300 Level Indianapolis Center
01:39PM 37.7781 -83.4947 251° West 406 467 26,700 1,080 Climbing Indianapolis Center
01:40PM 37.7428 -83.6242 251° West 394 453 28,300 1,320 Climbing Indianapolis Center
01:41PM 37.7094 -83.7481 251° West 377 434 29,500 1,140 Climbing Indianapolis Center
01:42PM 37.6694 -83.8894 250° West 369 425 30,700 1,020 Climbing Indianapolis Center
01:43PM 37.6358 -84.0100 251° West 365 420 31,700 960 Climbing Indianapolis Center
01:44PM 37.6025 -84.1281 250° West 358 412 32,700 960 Climbing Indianapolis Center
01:45PM 37.5719 -84.2425 251° West 347 399 33,700 600 Climbing Indianapolis Center
01:46PM 37.5397 -84.3558 250° West 346 398 34,000 120 Climbing Indianapolis Center
01:47PM 37.5058 -84.4733 250° West 356 410 34,000  Level Indianapolis Center
01:48PM 37.4656 -84.6164 251° West 371 427 34,000  Level Indianapolis Center
01:49PM 37.4311 -84.7403 251° West 375 432 34,000  Level Indianapolis Center
01:50PM 37.3947 -84.8672 250° West 383 441 34,000  Level Indianapolis Center
01:51PM 37.3572 -84.9936 250° West 386 444 34,000  Level Indianapolis Center
01:52PM 37.3206 -85.1208 250° West 387 445 34,000  Level Indianapolis Center
01:53PM 37.2775 -85.2678 250° West 383 441 34,000  Level Indianapolis Center
01:54PM 37.2414 -85.3917 250° West 378 435 34,000  Level Indianapolis Center
01:55PM 37.2081 -85.5081 250° West 372 428 34,000  Level Indianapolis Center
01:56PM 37.1733 -85.6247 250° West 374 430 34,000  Level Indianapolis Center
01:57PM 37.1436 -85.7303 251° West 376 433 34,000  Level Memphis Center
01:58PM 37.1103 -85.8464 250° West 368 423 34,000  Level Memphis Center
01:59PM 37.0728 -85.9631 248° West 368 423 34,000  Level Memphis Center
02:00PM 37.0375 -86.0844 250° West 368 423 34,000  Level Memphis Center
02:01PM 36.9981 -86.2139 249° West 368 423 34,000  Level Memphis Center
02:02PM 36.9625 -86.3325 249° West 373 429 34,000  Level Memphis Center
02:03PM 36.9244 -86.4514 248° West 373 429 34,000  Level Memphis Center
02:04PM 36.8694 -86.5578 237° Southwest 373 429 34,000  Level Memphis Center
02:05PM 36.8142 -86.6614 236° Southwest 368 423 34,000  Level Memphis Center
02:06PM 36.7569 -86.7675 236° Southwest 368 423 34,000  Level Memphis Center
02:07PM 36.7017 -86.8711 236° Southwest 368 423 34,000  Level Memphis Center
02:08PM 36.6461 -86.9742 236° Southwest 363 418 34,000  Level Memphis Center
02:09PM 36.5883 -87.0800 236° Southwest 363 418 34,000  Level Memphis Center
02:10PM 36.5328 -87.1856 237° Southwest 363 418 34,000  Level Memphis Center
02:11PM 36.4750 -87.2886 235° Southwest 368 423 34,000  Level Memphis Center
02:12PM 36.4192 -87.3939 237° Southwest 375 432 34,000  Level Memphis Center
02:13PM 36.3611 -87.4964 235° Southwest 370 426 34,000  Level Memphis Center
02:14PM 36.3031 -87.6014 236° Southwest 370 426 34,000  Level Memphis Center
02:15PM 36.2469 -87.7036 236° Southwest 370 426 34,000  Level Memphis Center
02:16PM 36.1886 -87.8111 236° Southwest 370 426 34,000  Level Memphis Center
02:17PM 36.1383 -87.9000 235° Southwest 370 426 34,000  Level Memphis Center
02:18PM 36.0819 -88.0019 236° Southwest 365 420 34,000  Level Memphis Center
02:19PM 36.0233 -88.1061 235° Southwest 365 420 34,000  Level Memphis Center
02:20PM 35.9667 -88.2028 234° Southwest 359 413 34,000  Level Memphis Center
02:21PM 35.9103 -88.3067 236° Southwest 364 419 34,000  Level Memphis Center
02:22PM 35.8619 -88.4181 242° Southwest 370 426 34,000  Level Memphis Center
02:23PM 35.8094 -88.5394 242° Southwest 375 432 34,000  Level Memphis Center
02:24PM 35.7611 -88.6531 242° Southwest 375 432 34,000  Level Memphis Center
02:25PM 35.7125 -88.7667 242° Southwest 375 432 34,000  Level Memphis Center
02:26PM 35.6681 -88.8800 244° Southwest 370 426 34,000  Level Memphis Center
02:27PM 35.6214 -88.9933 243° Southwest 370 426 34,000  Level Memphis Center
02:28PM 35.5725 -89.1064 242° Southwest 370 426 34,000  Level Memphis Center
02:29PM 35.5297 -89.2039 242° Southwest 370 426 34,000  Level Memphis Center
02:30PM 35.4806 -89.3194 242° Southwest 375 432 34,000  Level Memphis Center
02:31PM 35.4336 -89.4319 243° Southwest 375 432 34,000  Level Memphis Center
02:32PM 35.3844 -89.5472 242° Southwest 375 432 34,000  Level Memphis Center
02:33PM 35.3350 -89.6647 243° Southwest 375 432 34,000  Level Memphis Center
02:34PM 35.2875 -89.7772 243° Southwest 375 432 34,000  Level Memphis Center
02:35PM 35.2381 -89.8919 242° Southwest 380 437 34,000  Level Memphis Center
02:36PM 35.1883 -90.0089 243° Southwest 385 443 34,000  Level Memphis Center
02:37PM 35.1364 -90.1261 242° Southwest 385 443 34,000  Level Memphis Center
02:38PM 35.0867 -90.2378 241° Southwest 385 443 34,000  Level Memphis Center
02:39PM 35.0344 -90.3519 241° Southwest 385 443 34,000  Level Memphis Center
02:40PM 34.9844 -90.4711 243° Southwest 385 443 34,000  Level Memphis Center
02:41PM 34.9258 -90.5953 240° Southwest 385 443 34,000  Level Memphis Center
02:42PM 34.8756 -90.7114 242° Southwest 385 443 34,000  Level Memphis Center
02:43PM 34.8250 -90.8250 242° Southwest 385 443 34,000  Level Memphis Center
02:44PM 34.7722 -90.9411 241° Southwest 385 443 34,000  Level Memphis Center
02:45PM 34.7197 -91.0569 241° Southwest 390 449 34,000  Level Memphis Center
02:46PM 34.6667 -91.1728 241° Southwest 390 449 34,000  Level Memphis Center
02:47PM 34.6117 -91.2933 241° Southwest 395 455 34,000  Level Memphis Center
02:48PM 34.5586 -91.4114 241° Southwest 395 455 34,000  Level Memphis Center
02:49PM 34.5033 -91.5317 241° Southwest 400 460 34,000  Level Memphis Center
02:50PM 34.4500 -91.6517 242° Southwest 400 460 34,000  Level Memphis Center
02:51PM 34.3922 -91.7692 239° Southwest 406 467 34,000  Level Memphis Center
02:52PM 34.3367 -91.8914 241° Southwest 412 474 34,000  Level Memphis Center
02:53PM 34.2808 -92.0111 241° Southwest 412 474 34,000  Level Memphis Center
02:54PM 34.2247 -92.1331 241° Southwest 412 474 34,000  Level Memphis Center
02:55PM 34.1689 -92.2575 242° Southwest 412 474 34,000  Level Memphis Center
02:56PM 34.1128 -92.3717 239° Southwest 412 474 34,000  Level Memphis Center
02:57PM 34.0628 -92.4958 244° Southwest 412 474 34,000  Level Memphis Center
02:58PM 34.0022 -92.6147 238° Southwest 412 474 34,000  Level Memphis Center
03:00PM 33.8903 -92.8572 241° Southwest 415 478 34,000  Level Fort Worth Center
03:01PM 33.8319 -92.9778 240° Southwest 415 478 34,000  Level Fort Worth Center
03:02PM 33.7756 -93.0906 239° Southwest 409 471 34,000  Level Fort Worth Center
03:03PM 33.7211 -93.2081 241° Southwest 409 471 34,000  Level Fort Worth Center
03:04PM 33.6664 -93.3206 240° Southwest 409 471 34,000  Level Fort Worth Center
03:05PM 33.6136 -93.4328 241° Southwest 404 465 34,000  Level Fort Worth Center
03:06PM 33.5586 -93.5450 240° Southwest 404 465 34,000  Level Fort Worth Center
03:07PM 33.5036 -93.6569 240° Southwest 404 465 34,000  Level Fort Worth Center
03:08PM 33.4506 -93.7664 240° Southwest 399 459 34,000  Level Fort Worth Center
03:09PM 33.3856 -93.8983 239° Southwest 401 461 34,000  Level Fort Worth Center
03:10PM 33.3361 -93.9972 239° Southwest 406 467 34,000  Level Fort Worth Center
03:11PM 33.2747 -94.1264 240° Southwest 406 467 34,000  Level Fort Worth Center
03:12PM 33.2172 -94.2403 239° Southwest 406 467 34,000  Level Fort Worth Center
03:13PM 33.1594 -94.3564 239° Southwest 412 474 34,000  Level Fort Worth Center
03:14PM 33.0997 -94.4725 238° Southwest 412 474 34,000  Level Fort Worth Center
03:15PM 33.0417 -94.5883 239° Southwest 412 474 34,000  Level Fort Worth Center
03:16PM 32.9819 -94.7117 240° Southwest 412 474 34,000  Level Fort Worth Center
03:17PM 32.9217 -94.8322 239° Southwest 417 480 34,000  Level Fort Worth Center
03:18PM 32.8617 -94.9525 239° Southwest 422 486 34,000  Level Fort Worth Center
03:19PM 32.7992 -95.0753 239° Southwest 434 499 34,000  Level Fort Worth Center
03:20PM 32.7367 -95.1956 238° Southwest 434 499 34,000  Level Fort Worth Center
03:21PM 32.6781 -95.3181 240° Southwest 434 499 34,000  Level Fort Worth Center
03:22PM 32.6175 -95.4378 239° Southwest 427 491 34,000  Level Fort Worth Center
03:23PM 32.5547 -95.5600 239° Southwest 433 498 34,000  Level Fort Worth Center
03:24PM 32.4958 -95.6744 239° Southwest 433 498 34,000  Level Fort Worth Center
03:25PM 32.4347 -95.7936 239° Southwest 433 498 34,000  Level Fort Worth Center
03:26PM 32.3714 -95.9131 238° Southwest 433 498 34,000  Level Fort Worth Center
03:27PM 32.3103 -96.0344 239° Southwest 433 498 34,000  Level Fort Worth Center
03:28PM 32.2467 -96.1581 239° Southwest 438 504 34,000 -180 Level Fort Worth Center
03:29PM 32.1853 -96.2792 239° Southwest 432 497 33,700 -720 Descending Fort Worth Center
03:30PM 32.1153 -96.4078 237° Southwest 432 497 32,600 -1,080 Descending Fort Worth Center
03:31PM 32.0472 -96.5189 234° Southwest 432 497 31,600 -900 Descending Fort Worth Center
03:32PM 31.9664 -96.5881 216° Southwest 432 497 30,800 -960 Descending Fort Worth Center
03:33PM 31.8583 -96.6772 215° Southwest 440 506 29,700 -1,260 Descending Fort Worth Center
03:34PM 31.7606 -96.7586 215° Southwest 446 513 28,300 -1,500 Descending Fort Worth Center
03:35PM 31.6589 -96.8422 215° Southwest 446 513 26,700 -1,620 Descending Fort Worth Center
03:36PM 31.5736 -96.9103 214° Southwest 436 502 25,400 -1,620 Descending Houston Center
03:37PM 31.4767 -96.9897 215° Southwest 424 488 23,700 -1,620 Descending Houston Center
03:38PM 31.3825 -97.0669 215° Southwest 412 474 22,100 -1,560 Descending Houston Center
03:39PM 31.2914 -97.1414 215° Southwest 398 458 20,500 -1,260 Descending Houston Center
03:40PM 31.1850 -97.2172 211° Southwest 385 443 19,600 -1,440 Descending Houston Center
03:41PM 31.0819 -97.2581 199° South 388 447 17,600 -1,860 Descending Houston Center
03:42PM 30.9831 -97.2969 199° South 380 437 15,800 -1,740 Descending Houston Center
03:43PM 30.8900 -97.3328 198° South 369 425 14,100 -1,500 Descending Houston Center
03:44PM 30.7847 -97.3750 199° South 346 398 12,700 -1,260 Descending Houston Center
03:45PM 30.7119 -97.4258 211° Southwest 309 356 11,500 -1,260 Descending Houston Center
03:47PM 30.6553 -97.4847 222° Southwest 278 320 10,100 -1,380 Descending Houston Center
03:48PM 30.5903 -97.5200 205° Southwest 273 314 8,700 -1,440 Descending Houston Center
03:49PM 30.5153 -97.5247 183° South 275 316 7,200 -1,500 Descending Houston Center
03:50PM 30.4722 -97.5939 234° Southwest 266 306 5,600 -1,440 Descending Houston Center
03:51PM 30.4106 -97.6397 213° Southwest 263 303 4,300 -1,140 Descending Houston Center
03:52PM 30.3464 -97.6858 212° Southwest 238 274 3,300 -1,080 Descending Houston Center
03:53PM 30.2919 -97.6811 176° South 201 231 2,100 -960 Descending Houston Center
03:54PM 30.2517 -97.6794 178° South 166 191 1,400 -480 Descending Houston Center
03:55PM 30.2103 -97.6769 177° South 156 180 1,200 -240 Descending Houston Center
03:57PM 30.1945 -97.6699 221° Southwest  Level Estimated